sensor_id;sensor_type;location;lat;lon;timestamp;P1;durP1;ratioP1;P2;durP2;ratioP2
26478;SDS011;14163;-26.142;27.992;2022-07-22T00:00:20;49.80;;;42.53;;
26478;SDS011;14163;-26.142;27.992;2022-07-22T00:02:50;53.67;;;43.77;;
26478;SDS011;14163;-26.142;27.992;2022-07-22T00:05:19;54.50;;;43.53;;
26478;SDS011;14163;-26.142;27.992;2022-07-22T00:07:48;51.60;;;44.20;;
26478;SDS011;14163;-26.142;27.992;2022-07-22T00:10:19;49.83;;;42.27;;
26478;SDS011;14163;-26.142;27.992;2022-07-22T00:12:48;53.77;;;43.00;;
26478;SDS011;14163;-26.142;27.992;2022-07-22T00:15:17;52.80;;;43.40;;
26478;SDS011;14163;-26.142;27.992;2022-07-22T00:17:46;52.60;;;42.53;;
26478;SDS011;14163;-26.142;27.992;2022-07-22T00:20:15;53.57;;;42.50;;
26478;SDS011;14163;-26.142;27.992;2022-07-22T00:22:45;52.17;;;41.50;;
26478;SDS011;14163;-26.142;27.992;2022-07-22T00:25:14;52.90;;;44.00;;
26478;SDS011;14163;-26.142;27.992;2022-07-22T00:27:45;49.50;;;41.87;;
26478;SDS011;14163;-26.142;27.992;2022-07-22T00:30:14;51.77;;;41.97;;
26478;SDS011;14163;-26.142;27.992;2022-07-22T00:32:43;51.70;;;40.47;;
26478;SDS011;14163;-26.142;27.992;2022-07-22T00:35:13;53.30;;;43.37;;
26478;SDS011;14163;-26.142;27.992;2022-07-22T00:37:42;45.97;;;40.57;;
26478;SDS011;14163;-26.142;27.992;2022-07-22T00:40:11;58.60;;;42.60;;
26478;SDS011;14163;-26.142;27.992;2022-07-22T00:42:40;53.10;;;41.57;;
26478;SDS011;14163;-26.142;27.992;2022-07-22T00:45:11;50.40;;;41.23;;
26478;SDS011;14163;-26.142;27.992;2022-07-22T00:47:40;48.93;;;40.00;;
26478;SDS011;14163;-26.142;27.992;2022-07-22T00:50:09;45.67;;;38.03;;
26478;SDS011;14163;-26.142;27.992;2022-07-22T00:52:41;46.20;;;38.43;;
26478;SDS011;14163;-26.142;27.992;2022-07-22T00:55:11;44.23;;;37.00;;
26478;SDS011;14163;-26.142;27.992;2022-07-22T00:57:41;44.63;;;37.97;;
26478;SDS011;14163;-26.142;27.992;2022-07-22T01:00:13;47.90;;;37.40;;
26478;SDS011;14163;-26.142;27.992;2022-07-22T01:02:45;50.37;;;37.77;;
26478;SDS011;14163;-26.142;27.992;2022-07-22T01:05:14;42.63;;;36.43;;
26478;SDS011;14163;-26.142;27.992;2022-07-22T01:07:43;43.73;;;37.07;;
26478;SDS011;14163;-26.142;27.992;2022-07-22T01:10:13;48.17;;;35.63;;
26478;SDS011;14163;-26.142;27.992;2022-07-22T01:12:42;43.60;;;35.97;;
26478;SDS011;14163;-26.142;27.992;2022-07-22T01:15:13;43.00;;;34.67;;
26478;SDS011;14163;-26.142;27.992;2022-07-22T01:17:42;39.00;;;33.33;;
26478;SDS011;14163;-26.142;27.992;2022-07-22T01:20:13;38.90;;;32.80;;
26478;SDS011;14163;-26.142;27.992;2022-07-22T01:22:42;34.30;;;29.40;;
26478;SDS011;14163;-26.142;27.992;2022-07-22T01:25:11;36.37;;;30.00;;
26478;SDS011;14163;-26.142;27.992;2022-07-22T01:27:40;33.93;;;29.57;;
26478;SDS011;14163;-26.142;27.992;2022-07-22T01:30:10;35.97;;;29.57;;
26478;SDS011;14163;-26.142;27.992;2022-07-22T01:32:39;36.60;;;29.00;;
26478;SDS011;14163;-26.142;27.992;2022-07-22T01:35:08;36.13;;;30.87;;
26478;SDS011;14163;-26.142;27.992;2022-07-22T01:37:39;35.97;;;28.23;;
26478;SDS011;14163;-26.142;27.992;2022-07-22T01:40:09;35.50;;;29.23;;
26478;SDS011;14163;-26.142;27.992;2022-07-22T01:42:39;33.53;;;28.70;;
26478;SDS011;14163;-26.142;27.992;2022-07-22T01:45:08;33.80;;;28.77;;
26478;SDS011;14163;-26.142;27.992;2022-07-22T01:47:38;32.77;;;26.10;;
26478;SDS011;14163;-26.142;27.992;2022-07-22T01:50:08;32.30;;;26.40;;
26478;SDS011;14163;-26.142;27.992;2022-07-22T01:52:40;33.23;;;27.57;;
26478;SDS011;14163;-26.142;27.992;2022-07-22T01:55:09;42.10;;;31.40;;
26478;SDS011;14163;-26.142;27.992;2022-07-22T01:57:38;40.07;;;31.70;;
26478;SDS011;14163;-26.142;27.992;2022-07-22T02:00:08;37.63;;;33.13;;
26478;SDS011;14163;-26.142;27.992;2022-07-22T02:02:38;44.37;;;34.83;;
26478;SDS011;14163;-26.142;27.992;2022-07-22T02:05:07;47.77;;;37.37;;
26478;SDS011;14163;-26.142;27.992;2022-07-22T02:07:37;48.40;;;36.30;;
26478;SDS011;14163;-26.142;27.992;2022-07-22T02:10:08;44.80;;;37.37;;
26478;SDS011;14163;-26.142;27.992;2022-07-22T02:12:37;46.33;;;37.57;;
26478;SDS011;14163;-26.142;27.992;2022-07-22T02:15:07;48.40;;;37.10;;
26478;SDS011;14163;-26.142;27.992;2022-07-22T02:17:37;45.67;;;37.83;;
26478;SDS011;14163;-26.142;27.992;2022-07-22T02:20:06;46.17;;;37.40;;
26478;SDS011;14163;-26.142;27.992;2022-07-22T02:22:36;40.00;;;34.77;;
26478;SDS011;14163;-26.142;27.992;2022-07-22T02:25:07;46.37;;;36.27;;
26478;SDS011;14163;-26.142;27.992;2022-07-22T02:27:37;41.27;;;33.80;;
26478;SDS011;14163;-26.142;27.992;2022-07-22T02:30:07;43.17;;;32.73;;
26478;SDS011;14163;-26.142;27.992;2022-07-22T02:32:37;46.90;;;34.93;;
26478;SDS011;14163;-26.142;27.992;2022-07-22T02:35:07;42.97;;;33.97;;
26478;SDS011;14163;-26.142;27.992;2022-07-22T02:37:36;43.97;;;32.77;;
26478;SDS011;14163;-26.142;27.992;2022-07-22T02:40:07;42.43;;;33.00;;
26478;SDS011;14163;-26.142;27.992;2022-07-22T02:42:37;45.17;;;35.10;;
26478;SDS011;14163;-26.142;27.992;2022-07-22T02:45:07;44.37;;;35.00;;
26478;SDS011;14163;-26.142;27.992;2022-07-22T02:47:44;47.10;;;35.00;;
26478;SDS011;14163;-26.142;27.992;2022-07-22T02:50:16;42.57;;;32.60;;
26478;SDS011;14163;-26.142;27.992;2022-07-22T02:52:48;46.70;;;33.00;;
26478;SDS011;14163;-26.142;27.992;2022-07-22T02:55:17;44.60;;;33.77;;
26478;SDS011;14163;-26.142;27.992;2022-07-22T02:57:47;41.83;;;31.27;;
26478;SDS011;14163;-26.142;27.992;2022-07-22T03:00:16;45.83;;;32.77;;
26478;SDS011;14163;-26.142;27.992;2022-07-22T03:02:46;45.63;;;33.77;;
26478;SDS011;14163;-26.142;27.992;2022-07-22T03:05:15;47.07;;;33.03;;
26478;SDS011;14163;-26.142;27.992;2022-07-22T03:07:44;46.47;;;32.60;;
26478;SDS011;14163;-26.142;27.992;2022-07-22T03:10:16;47.90;;;32.53;;
26478;SDS011;14163;-26.142;27.992;2022-07-22T03:12:45;49.47;;;33.87;;
26478;SDS011;14163;-26.142;27.992;2022-07-22T03:15:14;50.53;;;35.00;;
26478;SDS011;14163;-26.142;27.992;2022-07-22T03:17:43;41.40;;;32.97;;
26478;SDS011;14163;-26.142;27.992;2022-07-22T03:20:12;46.00;;;32.90;;
26478;SDS011;14163;-26.142;27.992;2022-07-22T03:22:41;44.40;;;33.40;;
26478;SDS011;14163;-26.142;27.992;2022-07-22T03:25:11;46.33;;;33.07;;
26478;SDS011;14163;-26.142;27.992;2022-07-22T03:27:42;46.50;;;33.30;;
26478;SDS011;14163;-26.142;27.992;2022-07-22T03:30:11;42.30;;;30.57;;
26478;SDS011;14163;-26.142;27.992;2022-07-22T03:32:40;48.57;;;32.03;;
26478;SDS011;14163;-26.142;27.992;2022-07-22T03:35:10;46.00;;;32.67;;
26478;SDS011;14163;-26.142;27.992;2022-07-22T03:37:40;46.67;;;31.80;;
26478;SDS011;14163;-26.142;27.992;2022-07-22T03:40:09;48.97;;;31.40;;
26478;SDS011;14163;-26.142;27.992;2022-07-22T03:42:41;43.03;;;32.73;;
26478;SDS011;14163;-26.142;27.992;2022-07-22T03:45:10;49.50;;;33.90;;
26478;SDS011;14163;-26.142;27.992;2022-07-22T03:47:39;50.63;;;32.93;;
26478;SDS011;14163;-26.142;27.992;2022-07-22T03:50:09;46.13;;;33.47;;
26478;SDS011;14163;-26.142;27.992;2022-07-22T03:52:38;47.63;;;34.40;;
26478;SDS011;14163;-26.142;27.992;2022-07-22T03:55:07;49.20;;;35.27;;
26478;SDS011;14163;-26.142;27.992;2022-07-22T03:57:36;44.97;;;33.40;;
26478;SDS011;14163;-26.142;27.992;2022-07-22T04:00:08;44.20;;;35.20;;
26478;SDS011;14163;-26.142;27.992;2022-07-22T04:02:38;52.33;;;36.37;;
26478;SDS011;14163;-26.142;27.992;2022-07-22T04:05:07;51.90;;;38.40;;
26478;SDS011;14163;-26.142;27.992;2022-07-22T04:07:36;63.47;;;44.40;;
26478;SDS011;14163;-26.142;27.992;2022-07-22T04:10:05;58.77;;;43.33;;
26478;SDS011;14163;-26.142;27.992;2022-07-22T04:12:36;61.13;;;43.53;;
26478;SDS011;14163;-26.142;27.992;2022-07-22T04:15:08;56.63;;;43.27;;
26478;SDS011;14163;-26.142;27.992;2022-07-22T04:17:37;60.03;;;44.00;;
26478;SDS011;14163;-26.142;27.992;2022-07-22T04:20:07;54.00;;;42.80;;
26478;SDS011;14163;-26.142;27.992;2022-07-22T04:22:36;59.70;;;45.13;;
26478;SDS011;14163;-26.142;27.992;2022-07-22T04:25:06;58.53;;;42.97;;
26478;SDS011;14163;-26.142;27.992;2022-07-22T04:27:36;53.07;;;41.50;;
26478;SDS011;14163;-26.142;27.992;2022-07-22T04:30:07;61.43;;;43.50;;
26478;SDS011;14163;-26.142;27.992;2022-07-22T04:32:37;54.70;;;41.20;;
26478;SDS011;14163;-26.142;27.992;2022-07-22T04:35:06;58.20;;;43.40;;
26478;SDS011;14163;-26.142;27.992;2022-07-22T04:37:36;54.73;;;41.20;;
26478;SDS011;14163;-26.142;27.992;2022-07-22T04:40:05;53.63;;;42.77;;
26478;SDS011;14163;-26.142;27.992;2022-07-22T04:42:35;47.20;;;40.43;;
26478;SDS011;14163;-26.142;27.992;2022-07-22T04:45:05;52.47;;;43.60;;
26478;SDS011;14163;-26.142;27.992;2022-07-22T04:47:36;53.77;;;41.00;;
26478;SDS011;14163;-26.142;27.992;2022-07-22T04:50:05;55.23;;;42.40;;
26478;SDS011;14163;-26.142;27.992;2022-07-22T04:52:35;53.23;;;42.87;;
26478;SDS011;14163;-26.142;27.992;2022-07-22T04:55:05;49.60;;;41.80;;
26478;SDS011;14163;-26.142;27.992;2022-07-22T04:57:35;51.10;;;43.40;;
26478;SDS011;14163;-26.142;27.992;2022-07-22T05:00:04;62.70;;;46.33;;
26478;SDS011;14163;-26.142;27.992;2022-07-22T05:02:36;55.63;;;42.47;;
26478;SDS011;14163;-26.142;27.992;2022-07-22T05:05:06;55.03;;;45.03;;
26478;SDS011;14163;-26.142;27.992;2022-07-22T05:07:35;54.67;;;44.37;;
26478;SDS011;14163;-26.142;27.992;2022-07-22T05:10:05;56.93;;;44.27;;
26478;SDS011;14163;-26.142;27.992;2022-07-22T05:12:34;55.13;;;43.40;;
26478;SDS011;14163;-26.142;27.992;2022-07-22T05:15:04;65.50;;;45.10;;
26478;SDS011;14163;-26.142;27.992;2022-07-22T05:17:36;61.37;;;45.37;;
26478;SDS011;14163;-26.142;27.992;2022-07-22T05:20:06;54.90;;;44.80;;
26478;SDS011;14163;-26.142;27.992;2022-07-22T05:22:36;59.77;;;46.57;;
26478;SDS011;14163;-26.142;27.992;2022-07-22T05:25:05;54.87;;;44.90;;
26478;SDS011;14163;-26.142;27.992;2022-07-22T05:27:35;56.90;;;45.20;;
26478;SDS011;14163;-26.142;27.992;2022-07-22T05:30:04;53.90;;;44.50;;
26478;SDS011;14163;-26.142;27.992;2022-07-22T05:32:36;52.93;;;44.33;;
26478;SDS011;14163;-26.142;27.992;2022-07-22T05:35:05;57.87;;;43.50;;
26478;SDS011;14163;-26.142;27.992;2022-07-22T05:37:35;62.93;;;47.00;;
26478;SDS011;14163;-26.142;27.992;2022-07-22T05:40:04;55.80;;;44.27;;
26478;SDS011;14163;-26.142;27.992;2022-07-22T05:42:34;44.73;;;39.13;;
26478;SDS011;14163;-26.142;27.992;2022-07-22T05:45:03;44.70;;;39.23;;
26478;SDS011;14163;-26.142;27.992;2022-07-22T05:47:35;47.83;;;42.60;;
26478;SDS011;14163;-26.142;27.992;2022-07-22T05:50:04;55.07;;;42.43;;
26478;SDS011;14163;-26.142;27.992;2022-07-22T05:52:35;55.10;;;43.77;;
26478;SDS011;14163;-26.142;27.992;2022-07-22T05:55:04;47.53;;;40.30;;
26478;SDS011;14163;-26.142;27.992;2022-07-22T05:57:34;48.73;;;40.00;;
26478;SDS011;14163;-26.142;27.992;2022-07-22T06:00:04;44.80;;;38.00;;
26478;SDS011;14163;-26.142;27.992;2022-07-22T06:02:35;44.47;;;38.60;;
26478;SDS011;14163;-26.142;27.992;2022-07-22T06:05:04;51.37;;;41.90;;
26478;SDS011;14163;-26.142;27.992;2022-07-22T06:07:34;52.20;;;40.13;;
26478;SDS011;14163;-26.142;27.992;2022-07-22T06:10:04;51.20;;;41.70;;
26478;SDS011;14163;-26.142;27.992;2022-07-22T06:12:33;46.83;;;41.80;;
26478;SDS011;14163;-26.142;27.992;2022-07-22T06:15:02;53.77;;;42.83;;
26478;SDS011;14163;-26.142;27.992;2022-07-22T06:17:32;37.07;;;33.07;;
26478;SDS011;14163;-26.142;27.992;2022-07-22T06:20:04;39.17;;;33.20;;
26478;SDS011;14163;-26.142;27.992;2022-07-22T06:22:34;38.13;;;30.23;;
26478;SDS011;14163;-26.142;27.992;2022-07-22T06:25:03;37.23;;;29.00;;
26478;SDS011;14163;-26.142;27.992;2022-07-22T06:27:33;33.13;;;29.40;;
26478;SDS011;14163;-26.142;27.992;2022-07-22T06:30:03;35.10;;;27.03;;
26478;SDS011;14163;-26.142;27.992;2022-07-22T06:32:35;28.07;;;24.57;;
26478;SDS011;14163;-26.142;27.992;2022-07-22T06:35:04;34.20;;;26.50;;
26478;SDS011;14163;-26.142;27.992;2022-07-22T06:37:34;36.37;;;28.63;;
26478;SDS011;14163;-26.142;27.992;2022-07-22T06:40:04;37.13;;;27.30;;
26478;SDS011;14163;-26.142;27.992;2022-07-22T06:42:33;33.13;;;26.10;;
26478;SDS011;14163;-26.142;27.992;2022-07-22T06:45:04;36.67;;;28.90;;
26478;SDS011;14163;-26.142;27.992;2022-07-22T06:47:35;35.97;;;29.40;;
26478;SDS011;14163;-26.142;27.992;2022-07-22T06:50:05;37.63;;;31.27;;
26478;SDS011;14163;-26.142;27.992;2022-07-22T06:52:37;38.70;;;30.60;;
26478;SDS011;14163;-26.142;27.992;2022-07-22T06:55:08;37.37;;;29.13;;
26478;SDS011;14163;-26.142;27.992;2022-07-22T06:57:38;33.83;;;27.93;;
26478;SDS011;14163;-26.142;27.992;2022-07-22T07:00:07;35.03;;;26.20;;
26478;SDS011;14163;-26.142;27.992;2022-07-22T07:02:39;30.30;;;23.80;;
26478;SDS011;14163;-26.142;27.992;2022-07-22T07:05:09;29.00;;;22.03;;
26478;SDS011;14163;-26.142;27.992;2022-07-22T07:07:38;26.93;;;20.80;;
26478;SDS011;14163;-26.142;27.992;2022-07-22T07:10:07;22.53;;;18.40;;
26478;SDS011;14163;-26.142;27.992;2022-07-22T07:12:38;19.93;;;17.57;;
26478;SDS011;14163;-26.142;27.992;2022-07-22T07:15:07;20.47;;;17.90;;
26478;SDS011;14163;-26.142;27.992;2022-07-22T07:17:39;19.47;;;16.73;;
26478;SDS011;14163;-26.142;27.992;2022-07-22T07:20:09;23.17;;;17.93;;
26478;SDS011;14163;-26.142;27.992;2022-07-22T07:22:39;21.27;;;15.97;;
26478;SDS011;14163;-26.142;27.992;2022-07-22T07:25:08;23.23;;;16.77;;
26478;SDS011;14163;-26.142;27.992;2022-07-22T07:27:38;19.43;;;16.30;;
26478;SDS011;14163;-26.142;27.992;2022-07-22T07:30:08;19.70;;;15.30;;
26478;SDS011;14163;-26.142;27.992;2022-07-22T07:32:39;17.10;;;13.67;;
26478;SDS011;14163;-26.142;27.992;2022-07-22T07:35:09;14.60;;;12.50;;
26478;SDS011;14163;-26.142;27.992;2022-07-22T07:37:39;17.20;;;14.60;;
26478;SDS011;14163;-26.142;27.992;2022-07-22T07:40:09;17.43;;;15.57;;
26478;SDS011;14163;-26.142;27.992;2022-07-22T07:42:38;14.03;;;12.30;;
26478;SDS011;14163;-26.142;27.992;2022-07-22T07:45:08;13.40;;;10.00;;
26478;SDS011;14163;-26.142;27.992;2022-07-22T07:47:39;9.10;;;8.30;;
26478;SDS011;14163;-26.142;27.992;2022-07-22T07:50:09;9.40;;;8.50;;
26478;SDS011;14163;-26.142;27.992;2022-07-22T07:52:38;10.90;;;9.90;;
26478;SDS011;14163;-26.142;27.992;2022-07-22T07:55:08;16.33;;;12.70;;
26478;SDS011;14163;-26.142;27.992;2022-07-22T07:57:38;19.57;;;15.67;;
26478;SDS011;14163;-26.142;27.992;2022-07-22T08:00:08;21.90;;;18.47;;
26478;SDS011;14163;-26.142;27.992;2022-07-22T08:02:40;22.37;;;19.17;;
26478;SDS011;14163;-26.142;27.992;2022-07-22T08:05:09;24.37;;;18.90;;
26478;SDS011;14163;-26.142;27.992;2022-07-22T08:07:38;21.67;;;18.47;;
26478;SDS011;14163;-26.142;27.992;2022-07-22T08:10:08;25.97;;;19.70;;
26478;SDS011;14163;-26.142;27.992;2022-07-22T08:12:37;20.90;;;17.70;;
26478;SDS011;14163;-26.142;27.992;2022-07-22T08:15:07;24.13;;;18.73;;
26478;SDS011;14163;-26.142;27.992;2022-07-22T08:17:36;19.60;;;13.13;;
26478;SDS011;14163;-26.142;27.992;2022-07-22T08:20:07;10.33;;;9.17;;
26478;SDS011;14163;-26.142;27.992;2022-07-22T08:22:37;9.90;;;8.73;;
26478;SDS011;14163;-26.142;27.992;2022-07-22T08:25:06;16.00;;;10.93;;
26478;SDS011;14163;-26.142;27.992;2022-07-22T08:27:36;11.33;;;10.27;;
26478;SDS011;14163;-26.142;27.992;2022-07-22T08:30:05;13.13;;;11.77;;
26478;SDS011;14163;-26.142;27.992;2022-07-22T08:32:35;14.10;;;12.70;;
26478;SDS011;14163;-26.142;27.992;2022-07-22T08:35:05;14.60;;;13.13;;
26478;SDS011;14163;-26.142;27.992;2022-07-22T08:37:37;15.60;;;13.97;;
26478;SDS011;14163;-26.142;27.992;2022-07-22T08:40:07;24.10;;;22.00;;
26478;SDS011;14163;-26.142;27.992;2022-07-22T08:42:37;18.97;;;13.10;;
26478;SDS011;14163;-26.142;27.992;2022-07-22T08:45:07;18.90;;;14.63;;
26478;SDS011;14163;-26.142;27.992;2022-07-22T08:47:37;12.60;;;11.40;;
26478;SDS011;14163;-26.142;27.992;2022-07-22T08:50:09;13.20;;;10.40;;
26478;SDS011;14163;-26.142;27.992;2022-07-22T08:52:38;12.73;;;11.53;;
26478;SDS011;14163;-26.142;27.992;2022-07-22T08:55:08;13.23;;;11.93;;
26478;SDS011;14163;-26.142;27.992;2022-07-22T08:57:43;17.43;;;12.80;;
26478;SDS011;14163;-26.142;27.992;2022-07-22T09:00:14;14.37;;;13.07;;
26478;SDS011;14163;-26.142;27.992;2022-07-22T09:02:44;13.57;;;11.90;;
26478;SDS011;14163;-26.142;27.992;2022-07-22T09:05:17;11.87;;;10.37;;
26478;SDS011;14163;-26.142;27.992;2022-07-22T09:07:46;11.17;;;9.27;;
26478;SDS011;14163;-26.142;27.992;2022-07-22T09:10:16;11.40;;;10.20;;
26478;SDS011;14163;-26.142;27.992;2022-07-22T09:12:50;12.80;;;11.37;;
26478;SDS011;14163;-26.142;27.992;2022-07-22T09:15:27;11.90;;;10.73;;
26478;SDS011;14163;-26.142;27.992;2022-07-22T09:17:57;13.73;;;11.90;;
26478;SDS011;14163;-26.142;27.992;2022-07-22T09:20:29;15.40;;;11.90;;
26478;SDS011;14163;-26.142;27.992;2022-07-22T09:22:58;16.70;;;13.10;;
26478;SDS011;14163;-26.142;27.992;2022-07-22T09:25:28;10.27;;;9.23;;
26478;SDS011;14163;-26.142;27.992;2022-07-22T09:28:09;11.77;;;10.60;;
26478;SDS011;14163;-26.142;27.992;2022-07-22T09:30:40;12.67;;;11.40;;
26478;SDS011;14163;-26.142;27.992;2022-07-22T09:33:15;13.40;;;12.00;;
26478;SDS011;14163;-26.142;27.992;2022-07-22T09:35:46;11.63;;;10.43;;
26478;SDS011;14163;-26.142;27.992;2022-07-22T09:38:17;14.80;;;12.13;;
26478;SDS011;14163;-26.142;27.992;2022-07-22T09:40:54;13.63;;;11.53;;
26478;SDS011;14163;-26.142;27.992;2022-07-22T09:43:24;12.80;;;11.60;;
26478;SDS011;14163;-26.142;27.992;2022-07-22T09:45:58;11.00;;;9.77;;
26478;SDS011;14163;-26.142;27.992;2022-07-22T09:48:27;17.23;;;13.20;;
26478;SDS011;14163;-26.142;27.992;2022-07-22T09:50:58;14.20;;;12.60;;
26478;SDS011;14163;-26.142;27.992;2022-07-22T09:53:28;12.10;;;10.77;;
26478;SDS011;14163;-26.142;27.992;2022-07-22T09:55:58;13.00;;;10.00;;
26478;SDS011;14163;-26.142;27.992;2022-07-22T09:58:29;11.30;;;10.20;;
26478;SDS011;14163;-26.142;27.992;2022-07-22T10:01:00;11.50;;;10.17;;
26478;SDS011;14163;-26.142;27.992;2022-07-22T10:03:34;11.17;;;10.13;;
26478;SDS011;14163;-26.142;27.992;2022-07-22T10:06:08;11.80;;;10.60;;
26478;SDS011;14163;-26.142;27.992;2022-07-22T10:08:37;15.33;;;9.27;;
26478;SDS011;14163;-26.142;27.992;2022-07-22T10:11:08;9.50;;;8.70;;
26478;SDS011;14163;-26.142;27.992;2022-07-22T10:13:38;11.60;;;9.90;;
26478;SDS011;14163;-26.142;27.992;2022-07-22T10:16:07;9.60;;;8.77;;
26478;SDS011;14163;-26.142;27.992;2022-07-22T10:18:37;14.03;;;12.53;;
26478;SDS011;14163;-26.142;27.992;2022-07-22T10:21:09;13.50;;;12.30;;
26478;SDS011;14163;-26.142;27.992;2022-07-22T10:24:06;13.23;;;12.00;;
26478;SDS011;14163;-26.142;27.992;2022-07-22T10:26:46;12.23;;;11.03;;
26478;SDS011;14163;-26.142;27.992;2022-07-22T10:29:25;12.70;;;10.93;;
26478;SDS011;14163;-26.142;27.992;2022-07-22T10:37:54;14.33;;;11.90;;
26478;SDS011;14163;-26.142;27.992;2022-07-22T10:40:25;11.17;;;10.17;;
26478;SDS011;14163;-26.142;27.992;2022-07-22T10:43:05;10.17;;;9.17;;
26478;SDS011;14163;-26.142;27.992;2022-07-22T10:45:41;11.70;;;10.60;;
26478;SDS011;14163;-26.142;27.992;2022-07-22T10:48:13;11.63;;;10.53;;
26478;SDS011;14163;-26.142;27.992;2022-07-22T10:50:54;11.47;;;10.43;;
26478;SDS011;14163;-26.142;27.992;2022-07-22T10:53:42;12.00;;;10.63;;
26478;SDS011;14163;-26.142;27.992;2022-07-22T10:56:16;10.63;;;9.70;;
26478;SDS011;14163;-26.142;27.992;2022-07-22T10:58:54;14.67;;;10.00;;
26478;SDS011;14163;-26.142;27.992;2022-07-22T11:01:30;12.07;;;10.00;;
26478;SDS011;14163;-26.142;27.992;2022-07-22T11:04:10;10.50;;;9.50;;
26478;SDS011;14163;-26.142;27.992;2022-07-22T11:06:42;9.87;;;8.60;;
26478;SDS011;14163;-26.142;27.992;2022-07-22T11:09:15;10.60;;;8.87;;
26478;SDS011;14163;-26.142;27.992;2022-07-22T11:11:46;10.13;;;8.50;;
26478;SDS011;14163;-26.142;27.992;2022-07-22T11:14:17;9.97;;;8.97;;
26478;SDS011;14163;-26.142;27.992;2022-07-22T11:16:50;9.33;;;8.53;;
26478;SDS011;14163;-26.142;27.992;2022-07-22T11:19:21;12.03;;;10.90;;
26478;SDS011;14163;-26.142;27.992;2022-07-22T11:21:52;13.50;;;11.40;;
26478;SDS011;14163;-26.142;27.992;2022-07-22T11:24:24;15.40;;;12.20;;
26478;SDS011;14163;-26.142;27.992;2022-07-22T11:26:55;14.60;;;12.20;;
26478;SDS011;14163;-26.142;27.992;2022-07-22T11:29:27;13.97;;;12.50;;
26478;SDS011;14163;-26.142;27.992;2022-07-22T11:32:00;14.90;;;13.30;;
26478;SDS011;14163;-26.142;27.992;2022-07-22T11:34:30;15.00;;;13.60;;
26478;SDS011;14163;-26.142;27.992;2022-07-22T11:36:59;20.77;;;14.43;;
26478;SDS011;14163;-26.142;27.992;2022-07-22T11:39:30;14.53;;;13.23;;
26478;SDS011;14163;-26.142;27.992;2022-07-22T11:42:01;12.93;;;11.70;;
26478;SDS011;14163;-26.142;27.992;2022-07-22T11:44:32;13.40;;;12.03;;
26478;SDS011;14163;-26.142;27.992;2022-07-22T11:47:03;11.60;;;10.47;;
26478;SDS011;14163;-26.142;27.992;2022-07-22T11:49:33;9.77;;;8.77;;
26478;SDS011;14163;-26.142;27.992;2022-07-22T11:52:05;11.03;;;10.13;;
26478;SDS011;14163;-26.142;27.992;2022-07-22T11:54:39;10.83;;;9.93;;
26478;SDS011;14163;-26.142;27.992;2022-07-22T11:57:09;12.43;;;10.37;;
26478;SDS011;14163;-26.142;27.992;2022-07-22T11:59:39;11.90;;;10.50;;
26478;SDS011;14163;-26.142;27.992;2022-07-22T12:02:09;10.30;;;9.40;;
26478;SDS011;14163;-26.142;27.992;2022-07-22T12:04:40;11.43;;;10.43;;
26478;SDS011;14163;-26.142;27.992;2022-07-22T12:07:10;10.70;;;9.70;;
26478;SDS011;14163;-26.142;27.992;2022-07-22T12:09:42;13.13;;;10.47;;
26478;SDS011;14163;-26.142;27.992;2022-07-22T12:12:12;11.43;;;10.33;;
26478;SDS011;14163;-26.142;27.992;2022-07-22T12:14:44;11.83;;;9.70;;
26478;SDS011;14163;-26.142;27.992;2022-07-22T12:17:14;10.67;;;9.63;;
26478;SDS011;14163;-26.142;27.992;2022-07-22T12:19:44;10.10;;;9.20;;
26478;SDS011;14163;-26.142;27.992;2022-07-22T12:22:18;10.00;;;8.50;;
26478;SDS011;14163;-26.142;27.992;2022-07-22T12:24:59;8.77;;;8.07;;
26478;SDS011;14163;-26.142;27.992;2022-07-22T12:27:29;9.13;;;8.23;;
26478;SDS011;14163;-26.142;27.992;2022-07-22T12:29:58;11.00;;;10.10;;
26478;SDS011;14163;-26.142;27.992;2022-07-22T12:32:27;11.80;;;9.83;;
26478;SDS011;14163;-26.142;27.992;2022-07-22T12:34:59;9.20;;;8.40;;
26478;SDS011;14163;-26.142;27.992;2022-07-22T12:37:30;9.40;;;8.60;;
26478;SDS011;14163;-26.142;27.992;2022-07-22T12:40:03;10.50;;;9.20;;
26478;SDS011;14163;-26.142;27.992;2022-07-22T12:42:35;10.30;;;8.90;;
26478;SDS011;14163;-26.142;27.992;2022-07-22T12:45:06;10.23;;;9.33;;
26478;SDS011;14163;-26.142;27.992;2022-07-22T12:47:41;10.80;;;8.40;;
26478;SDS011;14163;-26.142;27.992;2022-07-22T12:50:23;9.90;;;9.00;;
26478;SDS011;14163;-26.142;27.992;2022-07-22T12:52:54;9.37;;;8.47;;
26478;SDS011;14163;-26.142;27.992;2022-07-22T12:55:26;9.10;;;8.33;;
26478;SDS011;14163;-26.142;27.992;2022-07-22T12:57:56;10.03;;;8.83;;
26478;SDS011;14163;-26.142;27.992;2022-07-22T13:00:25;9.63;;;8.73;;
26478;SDS011;14163;-26.142;27.992;2022-07-22T13:02:56;13.20;;;9.40;;
26478;SDS011;14163;-26.142;27.992;2022-07-22T13:05:25;10.10;;;9.27;;
26478;SDS011;14163;-26.142;27.992;2022-07-22T13:07:55;10.50;;;9.37;;
26478;SDS011;14163;-26.142;27.992;2022-07-22T13:10:26;12.10;;;8.60;;
26478;SDS011;14163;-26.142;27.992;2022-07-22T13:12:55;10.17;;;9.10;;
26478;SDS011;14163;-26.142;27.992;2022-07-22T13:15:25;10.70;;;8.10;;
26478;SDS011;14163;-26.142;27.992;2022-07-22T13:17:54;9.93;;;8.97;;
26478;SDS011;14163;-26.142;27.992;2022-07-22T13:20:23;10.93;;;9.43;;
26478;SDS011;14163;-26.142;27.992;2022-07-22T13:22:52;10.27;;;9.20;;
26478;SDS011;14163;-26.142;27.992;2022-07-22T13:25:21;8.93;;;8.13;;
26478;SDS011;14163;-26.142;27.992;2022-07-22T13:27:53;9.47;;;8.53;;
26478;SDS011;14163;-26.142;27.992;2022-07-22T13:30:24;9.80;;;8.43;;
26478;SDS011;14163;-26.142;27.992;2022-07-22T13:32:54;8.93;;;8.00;;
26478;SDS011;14163;-26.142;27.992;2022-07-22T13:35:23;8.90;;;8.10;;
26478;SDS011;14163;-26.142;27.992;2022-07-22T13:37:52;8.83;;;7.70;;
26478;SDS011;14163;-26.142;27.992;2022-07-22T13:40:22;9.10;;;8.20;;
26478;SDS011;14163;-26.142;27.992;2022-07-22T13:42:53;9.97;;;8.23;;
26478;SDS011;14163;-26.142;27.992;2022-07-22T13:45:24;9.00;;;7.63;;
26478;SDS011;14163;-26.142;27.992;2022-07-22T13:47:53;8.53;;;7.67;;
26478;SDS011;14163;-26.142;27.992;2022-07-22T13:50:22;7.17;;;6.60;;
26478;SDS011;14163;-26.142;27.992;2022-07-22T13:52:52;7.90;;;7.07;;
26478;SDS011;14163;-26.142;27.992;2022-07-22T13:55:21;8.30;;;7.50;;
26478;SDS011;14163;-26.142;27.992;2022-07-22T13:57:50;8.40;;;7.70;;
26478;SDS011;14163;-26.142;27.992;2022-07-22T14:00:22;7.70;;;7.00;;
26478;SDS011;14163;-26.142;27.992;2022-07-22T14:02:53;7.90;;;7.20;;
26478;SDS011;14163;-26.142;27.992;2022-07-22T14:05:22;10.30;;;7.27;;
26478;SDS011;14163;-26.142;27.992;2022-07-22T14:07:51;9.83;;;7.70;;
26478;SDS011;14163;-26.142;27.992;2022-07-22T14:10:20;8.03;;;6.53;;
26478;SDS011;14163;-26.142;27.992;2022-07-22T14:12:50;10.00;;;7.00;;
26478;SDS011;14163;-26.142;27.992;2022-07-22T14:15:22;7.87;;;6.87;;
26478;SDS011;14163;-26.142;27.992;2022-07-22T14:17:52;8.40;;;7.47;;
26478;SDS011;14163;-26.142;27.992;2022-07-22T14:20:21;8.87;;;6.80;;
26478;SDS011;14163;-26.142;27.992;2022-07-22T14:22:50;7.43;;;6.83;;
26478;SDS011;14163;-26.142;27.992;2022-07-22T14:25:20;8.30;;;7.00;;